sensor_id;sensor_type;location;lat;lon;timestamp;P1;durP1;ratioP1;P2;durP2;ratioP2
19043;SDS011;9654;52.302;8.120;2023-07-08T00:01:07;5.73;;;2.90;;
19043;SDS011;9654;52.302;8.120;2023-07-08T00:03:36;6.13;;;2.70;;
19043;SDS011;9654;52.302;8.120;2023-07-08T00:06:03;4.40;;;2.90;;
19043;SDS011;9654;52.302;8.120;2023-07-08T00:08:31;3.23;;;2.70;;
19043;SDS011;9654;52.302;8.120;2023-07-08T00:10:58;3.00;;;2.70;;
19043;SDS011;9654;52.302;8.120;2023-07-08T00:13:25;4.63;;;3.20;;
19043;SDS011;9654;52.302;8.120;2023-07-08T00:15:51;3.70;;;2.70;;
19043;SDS011;9654;52.302;8.120;2023-07-08T00:18:18;3.10;;;2.80;;
19043;SDS011;9654;52.302;8.120;2023-07-08T00:20:45;3.40;;;3.10;;
19043;SDS011;9654;52.302;8.120;2023-07-08T00:23:13;4.73;;;2.87;;
19043;SDS011;9654;52.302;8.120;2023-07-08T00:25:42;3.37;;;2.60;;
19043;SDS011;9654;52.302;8.120;2023-07-08T00:28:09;7.20;;;3.17;;
19043;SDS011;9654;52.302;8.120;2023-07-08T00:30:38;3.93;;;2.53;;
19043;SDS011;9654;52.302;8.120;2023-07-08T00:33:05;6.20;;;3.67;;
19043;SDS011;9654;52.302;8.120;2023-07-08T00:35:33;5.83;;;3.03;;
19043;SDS011;9654;52.302;8.120;2023-07-08T00:38:01;3.67;;;2.40;;
19043;SDS011;9654;52.302;8.120;2023-07-08T00:40:38;3.93;;;3.03;;
19043;SDS011;9654;52.302;8.120;2023-07-08T00:43:14;3.37;;;3.07;;
19043;SDS011;9654;52.302;8.120;2023-07-08T00:45:43;5.57;;;2.90;;
19043;SDS011;9654;52.302;8.120;2023-07-08T00:48:16;3.20;;;2.90;;
19043;SDS011;9654;52.302;8.120;2023-07-08T00:50:46;3.63;;;2.90;;
19043;SDS011;9654;52.302;8.120;2023-07-08T00:53:21;6.53;;;2.73;;
19043;SDS011;9654;52.302;8.120;2023-07-08T00:55:50;4.00;;;2.90;;
19043;SDS011;9654;52.302;8.120;2023-07-08T00:58:19;3.93;;;3.30;;
19043;SDS011;9654;52.302;8.120;2023-07-08T01:00:48;4.43;;;2.70;;
19043;SDS011;9654;52.302;8.120;2023-07-08T01:03:16;3.00;;;2.73;;
19043;SDS011;9654;52.302;8.120;2023-07-08T01:05:45;2.93;;;2.67;;
19043;SDS011;9654;52.302;8.120;2023-07-08T01:08:12;4.27;;;2.87;;
19043;SDS011;9654;52.302;8.120;2023-07-08T01:10:42;4.20;;;2.70;;
19043;SDS011;9654;52.302;8.120;2023-07-08T01:13:15;3.70;;;2.90;;
19043;SDS011;9654;52.302;8.120;2023-07-08T01:15:45;5.83;;;3.17;;
19043;SDS011;9654;52.302;8.120;2023-07-08T01:18:14;3.27;;;2.97;;
19043;SDS011;9654;52.302;8.120;2023-07-08T01:20:46;5.90;;;3.40;;
19043;SDS011;9654;52.302;8.120;2023-07-08T01:23:14;5.33;;;2.70;;
19043;SDS011;9654;52.302;8.120;2023-07-08T01:25:42;3.80;;;3.20;;
19043;SDS011;9654;52.302;8.120;2023-07-08T01:28:10;3.57;;;2.87;;
19043;SDS011;9654;52.302;8.120;2023-07-08T01:30:38;4.77;;;3.43;;
19043;SDS011;9654;52.302;8.120;2023-07-08T01:33:10;5.57;;;3.50;;
19043;SDS011;9654;52.302;8.120;2023-07-08T01:35:42;4.20;;;3.23;;
19043;SDS011;9654;52.302;8.120;2023-07-08T01:38:09;4.80;;;3.20;;
19043;SDS011;9654;52.302;8.120;2023-07-08T01:40:47;5.00;;;3.07;;
19043;SDS011;9654;52.302;8.120;2023-07-08T01:43:15;4.93;;;3.20;;
19043;SDS011;9654;52.302;8.120;2023-07-08T01:45:42;3.77;;;3.33;;
19043;SDS011;9654;52.302;8.120;2023-07-08T01:48:09;4.60;;;3.33;;
19043;SDS011;9654;52.302;8.120;2023-07-08T01:50:38;4.87;;;3.03;;
19043;SDS011;9654;52.302;8.120;2023-07-08T01:53:10;4.47;;;3.10;;
19043;SDS011;9654;52.302;8.120;2023-07-08T01:55:41;4.70;;;2.90;;
19043;SDS011;9654;52.302;8.120;2023-07-08T01:58:08;3.90;;;3.00;;
19043;SDS011;9654;52.302;8.120;2023-07-08T02:00:35;5.57;;;3.50;;
19043;SDS011;9654;52.302;8.120;2023-07-08T02:03:02;6.00;;;3.53;;
19043;SDS011;9654;52.302;8.120;2023-07-08T02:05:29;3.93;;;3.27;;
19043;SDS011;9654;52.302;8.120;2023-07-08T02:07:55;3.33;;;3.03;;
19043;SDS011;9654;52.302;8.120;2023-07-08T02:10:22;3.17;;;2.93;;
19043;SDS011;9654;52.302;8.120;2023-07-08T02:12:51;3.50;;;3.20;;
19043;SDS011;9654;52.302;8.120;2023-07-08T02:15:18;5.37;;;3.43;;
19043;SDS011;9654;52.302;8.120;2023-07-08T02:17:45;5.10;;;3.53;;
19043;SDS011;9654;52.302;8.120;2023-07-08T02:20:12;4.50;;;2.80;;
19043;SDS011;9654;52.302;8.120;2023-07-08T02:22:38;6.27;;;3.27;;
19043;SDS011;9654;52.302;8.120;2023-07-08T02:25:05;5.83;;;3.30;;
19043;SDS011;9654;52.302;8.120;2023-07-08T02:27:34;4.03;;;3.37;;
19043;SDS011;9654;52.302;8.120;2023-07-08T02:30:02;5.10;;;3.67;;
19043;SDS011;9654;52.302;8.120;2023-07-08T02:32:29;5.47;;;3.20;;
19043;SDS011;9654;52.302;8.120;2023-07-08T02:34:59;6.60;;;3.67;;
19043;SDS011;9654;52.302;8.120;2023-07-08T02:37:26;3.63;;;3.30;;
19043;SDS011;9654;52.302;8.120;2023-07-08T02:39:52;4.20;;;3.47;;
19043;SDS011;9654;52.302;8.120;2023-07-08T02:42:19;5.90;;;3.10;;
19043;SDS011;9654;52.302;8.120;2023-07-08T02:44:46;4.67;;;3.20;;
19043;SDS011;9654;52.302;8.120;2023-07-08T02:47:14;3.50;;;3.20;;
19043;SDS011;9654;52.302;8.120;2023-07-08T02:49:41;5.90;;;3.27;;
19043;SDS011;9654;52.302;8.120;2023-07-08T02:52:07;4.77;;;3.57;;
19043;SDS011;9654;52.302;8.120;2023-07-08T02:54:34;6.17;;;3.47;;
19043;SDS011;9654;52.302;8.120;2023-07-08T02:57:01;4.73;;;3.43;;
19043;SDS011;9654;52.302;8.120;2023-07-08T02:59:28;6.57;;;3.70;;
19043;SDS011;9654;52.302;8.120;2023-07-08T03:01:55;6.60;;;3.77;;
19043;SDS011;9654;52.302;8.120;2023-07-08T03:04:23;8.77;;;3.53;;
19043;SDS011;9654;52.302;8.120;2023-07-08T03:06:50;4.73;;;3.90;;
19043;SDS011;9654;52.302;8.120;2023-07-08T03:09:17;7.60;;;4.00;;
19043;SDS011;9654;52.302;8.120;2023-07-08T03:11:44;4.83;;;3.77;;
19043;SDS011;9654;52.302;8.120;2023-07-08T03:14:10;3.87;;;3.47;;
19043;SDS011;9654;52.302;8.120;2023-07-08T03:16:37;5.50;;;3.80;;
19043;SDS011;9654;52.302;8.120;2023-07-08T03:19:04;4.80;;;3.80;;
19043;SDS011;9654;52.302;8.120;2023-07-08T03:21:33;4.10;;;3.67;;
19043;SDS011;9654;52.302;8.120;2023-07-08T03:24:00;6.17;;;4.00;;
19043;SDS011;9654;52.302;8.120;2023-07-08T03:26:27;4.37;;;3.40;;
19043;SDS011;9654;52.302;8.120;2023-07-08T03:28:53;8.10;;;3.50;;
19043;SDS011;9654;52.302;8.120;2023-07-08T03:31:20;6.80;;;4.10;;
19043;SDS011;9654;52.302;8.120;2023-07-08T03:33:47;3.83;;;3.50;;
19043;SDS011;9654;52.302;8.120;2023-07-08T03:36:14;5.93;;;3.87;;
19043;SDS011;9654;52.302;8.120;2023-07-08T03:38:50;7.77;;;3.70;;
19043;SDS011;9654;52.302;8.120;2023-07-08T03:41:18;6.87;;;3.97;;
19043;SDS011;9654;52.302;8.120;2023-07-08T03:43:45;6.17;;;3.80;;
19043;SDS011;9654;52.302;8.120;2023-07-08T03:46:12;5.13;;;3.97;;
19043;SDS011;9654;52.302;8.120;2023-07-08T03:48:39;5.10;;;3.73;;
19043;SDS011;9654;52.302;8.120;2023-07-08T03:51:07;7.50;;;3.93;;
19043;SDS011;9654;52.302;8.120;2023-07-08T03:53:38;4.20;;;3.80;;
19043;SDS011;9654;52.302;8.120;2023-07-08T03:56:07;5.03;;;3.83;;
19043;SDS011;9654;52.302;8.120;2023-07-08T03:58:38;6.50;;;3.63;;
19043;SDS011;9654;52.302;8.120;2023-07-08T04:01:04;5.10;;;3.67;;
19043;SDS011;9654;52.302;8.120;2023-07-08T04:03:35;5.43;;;3.53;;
19043;SDS011;9654;52.302;8.120;2023-07-08T04:06:02;4.77;;;3.60;;
19043;SDS011;9654;52.302;8.120;2023-07-08T04:08:29;7.30;;;3.97;;
19043;SDS011;9654;52.302;8.120;2023-07-08T04:10:55;6.73;;;3.47;;
19043;SDS011;9654;52.302;8.120;2023-07-08T04:13:23;5.97;;;3.70;;
19043;SDS011;9654;52.302;8.120;2023-07-08T04:15:50;4.33;;;3.93;;
19043;SDS011;9654;52.302;8.120;2023-07-08T04:18:21;5.07;;;3.97;;
19043;SDS011;9654;52.302;8.120;2023-07-08T04:20:47;7.93;;;4.20;;
19043;SDS011;9654;52.302;8.120;2023-07-08T04:23:17;5.07;;;4.20;;
19043;SDS011;9654;52.302;8.120;2023-07-08T04:25:44;3.70;;;3.30;;
19043;SDS011;9654;52.302;8.120;2023-07-08T04:28:11;5.13;;;4.20;;
19043;SDS011;9654;52.302;8.120;2023-07-08T04:30:39;4.97;;;4.10;;
19043;SDS011;9654;52.302;8.120;2023-07-08T04:33:06;6.17;;;3.67;;
19043;SDS011;9654;52.302;8.120;2023-07-08T04:35:33;5.30;;;4.00;;
19043;SDS011;9654;52.302;8.120;2023-07-08T04:38:00;5.93;;;4.00;;
19043;SDS011;9654;52.302;8.120;2023-07-08T04:40:34;4.63;;;4.00;;
19043;SDS011;9654;52.302;8.120;2023-07-08T04:43:02;7.00;;;3.83;;
19043;SDS011;9654;52.302;8.120;2023-07-08T04:45:29;5.77;;;4.20;;
19043;SDS011;9654;52.302;8.120;2023-07-08T04:47:57;4.40;;;4.00;;
19043;SDS011;9654;52.302;8.120;2023-07-08T04:50:24;7.23;;;4.07;;
19043;SDS011;9654;52.302;8.120;2023-07-08T04:52:50;6.00;;;3.60;;
19043;SDS011;9654;52.302;8.120;2023-07-08T04:55:17;13.07;;;3.83;;
19043;SDS011;9654;52.302;8.120;2023-07-08T04:57:45;6.13;;;4.03;;
19043;SDS011;9654;52.302;8.120;2023-07-08T05:00:12;4.93;;;3.53;;
19043;SDS011;9654;52.302;8.120;2023-07-08T05:02:42;3.90;;;3.47;;
19043;SDS011;9654;52.302;8.120;2023-07-08T05:05:10;3.90;;;3.30;;
19043;SDS011;9654;52.302;8.120;2023-07-08T05:07:37;6.37;;;4.00;;
19043;SDS011;9654;52.302;8.120;2023-07-08T05:10:04;4.87;;;4.33;;
19043;SDS011;9654;52.302;8.120;2023-07-08T05:12:31;4.50;;;4.10;;
19043;SDS011;9654;52.302;8.120;2023-07-08T05:14:58;5.30;;;4.07;;
19043;SDS011;9654;52.302;8.120;2023-07-08T05:17:26;5.57;;;3.67;;
19043;SDS011;9654;52.302;8.120;2023-07-08T05:19:53;5.57;;;3.63;;
19043;SDS011;9654;52.302;8.120;2023-07-08T05:22:23;3.17;;;2.97;;
19043;SDS011;9654;52.302;8.120;2023-07-08T05:24:50;5.63;;;4.17;;
19043;SDS011;9654;52.302;8.120;2023-07-08T05:27:20;5.63;;;4.00;;
19043;SDS011;9654;52.302;8.120;2023-07-08T05:29:47;6.00;;;3.97;;
19043;SDS011;9654;52.302;8.120;2023-07-08T05:32:14;6.73;;;4.07;;
19043;SDS011;9654;52.302;8.120;2023-07-08T05:34:41;5.20;;;3.87;;
19043;SDS011;9654;52.302;8.120;2023-07-08T05:37:08;6.00;;;3.77;;
19043;SDS011;9654;52.302;8.120;2023-07-08T05:39:36;4.10;;;3.63;;
19043;SDS011;9654;52.302;8.120;2023-07-08T05:42:03;6.33;;;4.00;;
19043;SDS011;9654;52.302;8.120;2023-07-08T05:44:30;5.23;;;3.67;;
19043;SDS011;9654;52.302;8.120;2023-07-08T05:46:57;5.50;;;3.57;;
19043;SDS011;9654;52.302;8.120;2023-07-08T05:49:23;6.57;;;4.00;;
19043;SDS011;9654;52.302;8.120;2023-07-08T05:51:50;4.57;;;3.63;;
19043;SDS011;9654;52.302;8.120;2023-07-08T05:54:17;5.70;;;3.80;;
19043;SDS011;9654;52.302;8.120;2023-07-08T05:56:45;4.13;;;3.73;;
19043;SDS011;9654;52.302;8.120;2023-07-08T05:59:12;5.03;;;4.33;;
19043;SDS011;9654;52.302;8.120;2023-07-08T06:01:39;7.07;;;3.90;;
19043;SDS011;9654;52.302;8.120;2023-07-08T06:04:05;4.30;;;3.90;;
19043;SDS011;9654;52.302;8.120;2023-07-08T06:06:32;4.07;;;3.43;;
19043;SDS011;9654;52.302;8.120;2023-07-08T06:08:59;5.40;;;3.30;;
19043;SDS011;9654;52.302;8.120;2023-07-08T06:11:26;4.03;;;3.57;;
19043;SDS011;9654;52.302;8.120;2023-07-08T06:13:54;5.30;;;3.57;;
19043;SDS011;9654;52.302;8.120;2023-07-08T06:16:21;4.73;;;3.30;;
19043;SDS011;9654;52.302;8.120;2023-07-08T06:18:48;4.80;;;3.43;;
19043;SDS011;9654;52.302;8.120;2023-07-08T06:21:15;6.20;;;3.70;;
19043;SDS011;9654;52.302;8.120;2023-07-08T06:23:42;3.97;;;3.40;;
19043;SDS011;9654;52.302;8.120;2023-07-08T06:26:08;3.80;;;3.27;;
19043;SDS011;9654;52.302;8.120;2023-07-08T06:28:35;5.27;;;3.73;;
19043;SDS011;9654;52.302;8.120;2023-07-08T06:31:03;5.10;;;3.33;;
19043;SDS011;9654;52.302;8.120;2023-07-08T06:33:30;3.97;;;3.47;;
19043;SDS011;9654;52.302;8.120;2023-07-08T06:35:57;10.83;;;3.80;;
19043;SDS011;9654;52.302;8.120;2023-07-08T06:38:23;5.60;;;3.53;;
19043;SDS011;9654;52.302;8.120;2023-07-08T06:40:50;4.73;;;3.37;;
19043;SDS011;9654;52.302;8.120;2023-07-08T06:43:17;4.90;;;3.63;;
19043;SDS011;9654;52.302;8.120;2023-07-08T06:45:44;7.67;;;3.30;;
19043;SDS011;9654;52.302;8.120;2023-07-08T06:48:12;8.50;;;3.73;;
19043;SDS011;9654;52.302;8.120;2023-07-08T06:50:41;5.73;;;3.40;;
19043;SDS011;9654;52.302;8.120;2023-07-08T06:53:08;5.03;;;3.43;;
19043;SDS011;9654;52.302;8.120;2023-07-08T06:55:35;3.27;;;3.07;;
19043;SDS011;9654;52.302;8.120;2023-07-08T06:58:01;4.67;;;3.43;;
19043;SDS011;9654;52.302;8.120;2023-07-08T07:00:28;3.70;;;3.27;;
19043;SDS011;9654;52.302;8.120;2023-07-08T07:02:55;3.67;;;3.33;;
19043;SDS011;9654;52.302;8.120;2023-07-08T07:05:23;4.43;;;3.43;;
19043;SDS011;9654;52.302;8.120;2023-07-08T07:07:50;3.90;;;3.33;;
19043;SDS011;9654;52.302;8.120;2023-07-08T07:10:17;3.80;;;3.00;;
19043;SDS011;9654;52.302;8.120;2023-07-08T07:12:44;7.00;;;3.00;;
19043;SDS011;9654;52.302;8.120;2023-07-08T07:15:11;3.93;;;3.00;;
19043;SDS011;9654;52.302;8.120;2023-07-08T07:17:38;5.63;;;3.25;;
19043;SDS011;9654;52.302;8.120;2023-07-08T07:20:05;3.67;;;2.85;;
19043;SDS011;9654;52.302;8.120;2023-07-08T07:22:35;6.17;;;3.60;;
19043;SDS011;9654;52.302;8.120;2023-07-08T07:25:02;5.15;;;3.40;;
19043;SDS011;9654;52.302;8.120;2023-07-08T07:27:29;8.18;;;3.10;;
19043;SDS011;9654;52.302;8.120;2023-07-08T07:29:56;4.43;;;3.23;;
19043;SDS011;9654;52.302;8.120;2023-07-08T07:32:24;4.25;;;2.95;;
19043;SDS011;9654;52.302;8.120;2023-07-08T07:34:52;3.47;;;3.17;;
19043;SDS011;9654;52.302;8.120;2023-07-08T07:37:19;8.02;;;3.15;;
19043;SDS011;9654;52.302;8.120;2023-07-08T07:39:48;4.10;;;2.92;;
19043;SDS011;9654;52.302;8.120;2023-07-08T07:42:16;5.15;;;3.10;;
19043;SDS011;9654;52.302;8.120;2023-07-08T07:44:44;6.25;;;2.88;;
19043;SDS011;9654;52.302;8.120;2023-07-08T07:47:11;3.63;;;3.30;;
19043;SDS011;9654;52.302;8.120;2023-07-08T07:49:38;3.38;;;2.83;;
19043;SDS011;9654;52.302;8.120;2023-07-08T07:52:05;4.25;;;3.05;;
19043;SDS011;9654;52.302;8.120;2023-07-08T07:54:33;3.70;;;2.67;;
19043;SDS011;9654;52.302;8.120;2023-07-08T07:57:01;5.28;;;3.10;;
19043;SDS011;9654;52.302;8.120;2023-07-08T07:59:27;4.53;;;3.45;;
19043;SDS011;9654;52.302;8.120;2023-07-08T08:01:54;3.90;;;2.80;;
19043;SDS011;9654;52.302;8.120;2023-07-08T08:04:21;2.95;;;2.65;;
19043;SDS011;9654;52.302;8.120;2023-07-08T08:06:48;2.78;;;2.53;;
19043;SDS011;9654;52.302;8.120;2023-07-08T08:09:14;4.15;;;2.63;;
19043;SDS011;9654;52.302;8.120;2023-07-08T08:11:41;5.15;;;2.72;;
19043;SDS011;9654;52.302;8.120;2023-07-08T08:14:09;4.25;;;2.90;;
19043;SDS011;9654;52.302;8.120;2023-07-08T08:16:36;5.88;;;3.00;;
19043;SDS011;9654;52.302;8.120;2023-07-08T08:19:03;5.78;;;2.78;;
19043;SDS011;9654;52.302;8.120;2023-07-08T08:21:29;2.97;;;2.42;;
19043;SDS011;9654;52.302;8.120;2023-07-08T08:23:56;4.60;;;2.63;;
19043;SDS011;9654;52.302;8.120;2023-07-08T08:26:25;6.72;;;2.88;;
19043;SDS011;9654;52.302;8.120;2023-07-08T08:28:52;4.28;;;2.63;;
19043;SDS011;9654;52.302;8.120;2023-07-08T08:31:20;4.40;;;2.70;;
19043;SDS011;9654;52.302;8.120;2023-07-08T08:33:47;3.70;;;2.75;;
19043;SDS011;9654;52.302;8.120;2023-07-08T08:36:14;2.15;;;2.05;;
19043;SDS011;9654;52.302;8.120;2023-07-08T08:38:40;3.13;;;2.25;;
19043;SDS011;9654;52.302;8.120;2023-07-08T08:41:09;4.20;;;2.58;;
19043;SDS011;9654;52.302;8.120;2023-07-08T08:43:39;3.10;;;2.38;;
19043;SDS011;9654;52.302;8.120;2023-07-08T08:46:08;5.45;;;2.90;;
19043;SDS011;9654;52.302;8.120;2023-07-08T08:48:43;3.95;;;2.75;;
19043;SDS011;9654;52.302;8.120;2023-07-08T08:51:16;4.10;;;2.47;;
19043;SDS011;9654;52.302;8.120;2023-07-08T08:53:43;3.25;;;2.80;;
19043;SDS011;9654;52.302;8.120;2023-07-08T08:56:13;5.32;;;2.80;;
19043;SDS011;9654;52.302;8.120;2023-07-08T08:58:45;3.75;;;2.47;;
19043;SDS011;9654;52.302;8.120;2023-07-08T09:01:17;4.85;;;2.58;;
19043;SDS011;9654;52.302;8.120;2023-07-08T09:03:46;3.03;;;2.53;;
19043;SDS011;9654;52.302;8.120;2023-07-08T09:06:16;3.42;;;2.92;;
19043;SDS011;9654;52.302;8.120;2023-07-08T09:08:46;3.33;;;2.70;;
19043;SDS011;9654;52.302;8.120;2023-07-08T09:11:18;3.38;;;2.70;;
19043;SDS011;9654;52.302;8.120;2023-07-08T09:13:52;3.95;;;3.22;;
19043;SDS011;9654;52.302;8.120;2023-07-08T09:16:20;2.65;;;2.45;;
19043;SDS011;9654;52.302;8.120;2023-07-08T09:19:02;4.75;;;3.13;;
19043;SDS011;9654;52.302;8.120;2023-07-08T09:21:33;3.97;;;3.00;;
19043;SDS011;9654;52.302;8.120;2023-07-08T09:24:04;5.65;;;3.38;;
19043;SDS011;9654;52.302;8.120;2023-07-08T09:26:38;6.82;;;3.33;;
19043;SDS011;9654;52.302;8.120;2023-07-08T09:29:07;8.70;;;3.15;;
19043;SDS011;9654;52.302;8.120;2023-07-08T09:31:37;3.60;;;2.80;;
19043;SDS011;9654;52.302;8.120;2023-07-08T09:34:08;4.30;;;2.88;;
19043;SDS011;9654;52.302;8.120;2023-07-08T09:36:39;3.35;;;3.05;;
19043;SDS011;9654;52.302;8.120;2023-07-08T09:39:09;3.45;;;3.13;;
19043;SDS011;9654;52.302;8.120;2023-07-08T09:41:38;5.10;;;3.20;;
19043;SDS011;9654;52.302;8.120;2023-07-08T09:44:08;3.25;;;2.97;;
19043;SDS011;9654;52.302;8.120;2023-07-08T09:46:41;7.70;;;3.63;;
19043;SDS011;9654;52.302;8.120;2023-07-08T09:49:19;4.97;;;3.33;;
19043;SDS011;9654;52.302;8.120;2023-07-08T09:51:48;5.40;;;3.17;;
19043;SDS011;9654;52.302;8.120;2023-07-08T09:54:16;4.40;;;2.95;;
19043;SDS011;9654;52.302;8.120;2023-07-08T09:56:44;4.03;;;3.10;;
19043;SDS011;9654;52.302;8.120;2023-07-08T09:59:23;7.60;;;3.47;;
19043;SDS011;9654;52.302;8.120;2023-07-08T10:01:53;4.72;;;3.58;;
19043;SDS011;9654;52.302;8.120;2023-07-08T10:04:22;4.50;;;3.35;;
19043;SDS011;9654;52.302;8.120;2023-07-08T10:06:48;3.85;;;3.40;;
19043;SDS011;9654;52.302;8.120;2023-07-08T10:09:18;4.68;;;3.28;;
19043;SDS011;9654;52.302;8.120;2023-07-08T10:11:47;6.68;;;3.58;;
19043;SDS011;9654;52.302;8.120;2023-07-08T10:14:20;3.92;;;2.97;;
19043;SDS011;9654;52.302;8.120;2023-07-08T10:16:52;3.80;;;3.40;;
19043;SDS011;9654;52.302;8.120;2023-07-08T10:19:19;4.93;;;3.00;;
19043;SDS011;9654;52.302;8.120;2023-07-08T10:21:50;3.20;;;3.00;;
19043;SDS011;9654;52.302;8.120;2023-07-08T10:24:28;3.47;;;3.17;;
19043;SDS011;9654;52.302;8.120;2023-07-08T10:27:04;5.07;;;3.85;;
19043;SDS011;9654;52.302;8.120;2023-07-08T10:29:42;4.18;;;3.30;;
19043;SDS011;9654;52.302;8.120;2023-07-08T10:32:18;5.05;;;3.35;;
19043;SDS011;9654;52.302;8.120;2023-07-08T10:34:58;4.25;;;3.35;;
19043;SDS011;9654;52.302;8.120;2023-07-08T10:37:40;4.63;;;3.42;;
19043;SDS011;9654;52.302;8.120;2023-07-08T10:40:19;4.20;;;3.67;;
19043;SDS011;9654;52.302;8.120;2023-07-08T10:43:00;4.18;;;3.70;;
19043;SDS011;9654;52.302;8.120;2023-07-08T10:45:45;3.50;;;3.20;;
19043;SDS011;9654;52.302;8.120;2023-07-08T10:48:29;4.25;;;3.70;;
19043;SDS011;9654;52.302;8.120;2023-07-08T10:51:18;5.45;;;3.45;;
19043;SDS011;9654;52.302;8.120;2023-07-08T10:53:58;4.45;;;3.50;;
19043;SDS011;9654;52.302;8.120;2023-07-08T10:56:40;4.75;;;3.78;;
19043;SDS011;9654;52.302;8.120;2023-07-08T10:59:19;4.22;;;3.70;;
19043;SDS011;9654;52.302;8.120;2023-07-08T11:02:17;4.10;;;3.80;;
19043;SDS011;9654;52.302;8.120;2023-07-08T11:05:07;4.22;;;3.42;;
19043;SDS011;9654;52.302;8.120;2023-07-08T11:07:48;4.97;;;3.50;;
19043;SDS011;9654;52.302;8.120;2023-07-08T11:10:20;6.82;;;3.55;;
19043;SDS011;9654;52.302;8.120;2023-07-08T11:12:55;5.70;;;3.92;;
19043;SDS011;9654;52.302;8.120;2023-07-08T11:15:28;6.07;;;4.03;;
19043;SDS011;9654;52.302;8.120;2023-07-08T11:18:01;3.90;;;3.50;;
19043;SDS011;9654;52.302;8.120;2023-07-08T11:20:34;4.28;;;3.88;;
19043;SDS011;9654;52.302;8.120;2023-07-08T11:23:08;5.55;;;3.60;;
19043;SDS011;9654;52.302;8.120;2023-07-08T11:25:50;4.72;;;3.58;;
19043;SDS011;9654;52.302;8.120;2023-07-08T11:28:21;4.63;;;3.35;;
19043;SDS011;9654;52.302;8.120;2023-07-08T11:30:50;4.88;;;3.35;;
19043;SDS011;9654;52.302;8.120;2023-07-08T11:33:19;5.82;;;3.60;;
19043;SDS011;9654;52.302;8.120;2023-07-08T11:35:51;3.45;;;3.15;;
19043;SDS011;9654;52.302;8.120;2023-07-08T11:38:22;4.45;;;3.58;;
19043;SDS011;9654;52.302;8.120;2023-07-08T11:40:49;4.30;;;3.60;;
19043;SDS011;9654;52.302;8.120;2023-07-08T11:43:18;6.15;;;4.03;;
19043;SDS011;9654;52.302;8.120;2023-07-08T11:45:46;5.10;;;3.80;;
19043;SDS011;9654;52.302;8.120;2023-07-08T11:48:16;5.60;;;3.97;;
19043;SDS011;9654;52.302;8.120;2023-07-08T11:50:45;9.23;;;4.18;;
19043;SDS011;9654;52.302;8.120;2023-07-08T11:53:14;4.07;;;3.67;;
19043;SDS011;9654;52.302;8.120;2023-07-08T11:56:01;6.28;;;4.07;;
19043;SDS011;9654;52.302;8.120;2023-07-08T11:58:31;5.47;;;4.35;;
19043;SDS011;9654;52.302;8.120;2023-07-08T12:01:19;5.40;;;3.90;;
19043;SDS011;9654;52.302;8.120;2023-07-08T12:03:51;4.88;;;4.35;;
19043;SDS011;9654;52.302;8.120;2023-07-08T12:09:15;4.55;;;4.10;;
19043;SDS011;9654;52.302;8.120;2023-07-08T12:11:50;5.80;;;4.22;;
19043;SDS011;9654;52.302;8.120;2023-07-08T12:14:20;5.60;;;3.78;;
19043;SDS011;9654;52.302;8.120;2023-07-08T12:16:49;6.45;;;4.25;;
19043;SDS011;9654;52.302;8.120;2023-07-08T12:19:16;6.22;;;4.07;;
19043;SDS011;9654;52.302;8.120;2023-07-08T12:21:45;6.13;;;4.45;;
19043;SDS011;9654;52.302;8.120;2023-07-08T12:24:14;6.15;;;4.50;;
19043;SDS011;9654;52.302;8.120;2023-07-08T12:26:41;6.43;;;4.00;;
19043;SDS011;9654;52.302;8.120;2023-07-08T12:29:09;4.90;;;4.40;;
19043;SDS011;9654;52.302;8.120;2023-07-08T12:31:38;4.60;;;4.20;;
19043;SDS011;9654;52.302;8.120;2023-07-08T12:34:09;6.57;;;4.40;;
19043;SDS011;9654;52.302;8.120;2023-07-08T12:36:39;4.90;;;4.35;;
19043;SDS011;9654;52.302;8.120;2023-07-08T12:39:07;5.18;;;4.68;;
19043;SDS011;9654;52.302;8.120;2023-07-08T12:41:39;7.28;;;4.32;;
19043;SDS011;9654;52.302;8.120;2023-07-08T12:44:08;6.15;;;4.15;;
19043;SDS011;9654;52.302;8.120;2023-07-08T12:46:43;4.68;;;4.20;;
19043;SDS011;9654;52.302;8.120;2023-07-08T12:49:11;5.97;;;4.15;;
19043;SDS011;9654;52.302;8.120;2023-07-08T12:51:42;10.80;;;4.47;;
19043;SDS011;9654;52.302;8.120;2023-07-08T12:54:10;4.25;;;3.85;;
19043;SDS011;9654;52.302;8.120;2023-07-08T12:56:42;8.15;;;4.70;;
19043;SDS011;9654;52.302;8.120;2023-07-08T12:59:11;7.18;;;4.50;;
19043;SDS011;9654;52.302;8.120;2023-07-08T13:01:43;6.82;;;4.32;;
19043;SDS011;9654;52.302;8.120;2023-07-08T13:04:12;4.97;;;4.07;;
19043;SDS011;9654;52.302;8.120;2023-07-08T13:06:40;6.97;;;4.28;;
19043;SDS011;9654;52.302;8.120;2023-07-08T13:09:11;5.63;;;4.38;;
19043;SDS011;9654;52.302;8.120;2023-07-08T13:11:49;8.15;;;5.00;;
19043;SDS011;9654;52.302;8.120;2023-07-08T13:14:17;5.93;;;5.07;;
19043;SDS011;9654;52.302;8.120;2023-07-08T13:16:46;6.78;;;4.68;;
19043;SDS011;9654;52.302;8.120;2023-07-08T13:19:14;6.00;;;4.72;;
19043;SDS011;9654;52.302;8.120;2023-07-08T13:21:41;5.65;;;4.80;;
19043;SDS011;9654;52.302;8.120;2023-07-08T13:24:09;5.40;;;4.90;;
19043;SDS011;9654;52.302;8.120;2023-07-08T13:26:36;7.22;;;5.03;;
19043;SDS011;9654;52.302;8.120;2023-07-08T13:29:09;7.30;;;4.63;;
19043;SDS011;9654;52.302;8.120;2023-07-08T13:31:40;4.90;;;4.45;;
19043;SDS011;9654;52.302;8.120;2023-07-08T13:34:15;7.13;;;5.75;;
19043;SDS011;9654;52.302;8.120;2023-07-08T13:36:43;5.15;;;4.55;;
19043;SDS011;9654;52.302;8.120;2023-07-08T13:39:15;8.32;;;4.65;;
19043;SDS011;9654;52.302;8.120;2023-07-08T13:41:45;5.18;;;4.53;;
19043;SDS011;9654;52.302;8.120;2023-07-08T13:44:13;8.80;;;4.88;;
19043;SDS011;9654;52.302;8.120;2023-07-08T13:46:43;9.02;;;5.07;;
19043;SDS011;9654;52.302;8.120;2023-07-08T13:49:19;5.25;;;4.55;;
19043;SDS011;9654;52.302;8.120;2023-07-08T13:51:48;9.43;;;5.30;;
19043;SDS011;9654;52.302;8.120;2023-07-08T13:54:19;5.45;;;4.78;;
19043;SDS011;9654;52.302;8.120;2023-07-08T13:56:47;5.65;;;5.13;;
19043;SDS011;9654;52.302;8.120;2023-07-08T13:59:17;5.50;;;4.50;;
19043;SDS011;9654;52.302;8.120;2023-07-08T14:01:47;5.03;;;4.53;;
19043;SDS011;9654;52.302;8.120;2023-07-08T14:04:18;5.40;;;4.90;;
19043;SDS011;9654;52.302;8.120;2023-07-08T14:06:47;6.80;;;4.88;;
19043;SDS011;9654;52.302;8.120;2023-07-08T14:09:14;7.07;;;5.30;;
19043;SDS011;9654;52.302;8.120;2023-07-08T14:11:43;6.68;;;5.53;;
19043;SDS011;9654;52.302;8.120;2023-07-08T14:14:10;5.95;;;5.13;;
19043;SDS011;9654;52.302;8.120;2023-07-08T14:16:39;5.93;;;5.32;;
19043;SDS011;9654;52.302;8.120;2023-07-08T14:19:10;5.78;;;5.10;;
19043;SDS011;9654;52.302;8.120;2023-07-08T14:21:40;6.75;;;5.03;;
19043;SDS011;9654;52.302;8.120;2023-07-08T14:24:10;5.85;;;4.78;;
19043;SDS011;9654;52.302;8.120;2023-07-08T14:26:39;7.95;;;4.88;;
19043;SDS011;9654;52.302;8.120;2023-07-08T14:29:08;5.85;;;5.22;;
19043;SDS011;9654;52.302;8.120;2023-07-08T14:31:35;7.05;;;4.95;;
19043;SDS011;9654;52.302;8.120;2023-07-08T14:34:06;6.05;;;5.22;;
19043;SDS011;9654;52.302;8.120;2023-07-08T14:36:33;7.60;;;5.07;;
19043;SDS011;9654;52.302;8.120;2023-07-08T14:39:00;6.18;;;5.10;;
19043;SDS011;9654;52.302;8.120;2023-07-08T14:41:36;7.25;;;4.72;;
19043;SDS011;9654;52.302;8.120;2023-07-08T14:44:07;6.72;;;5.00;;
19043;SDS011;9654;52.302;8.120;2023-07-08T14:46:46;7.53;;;5.68;;
19043;SDS011;9654;52.302;8.120;2023-07-08T14:49:17;8.32;;;5.43;;
19043;SDS011;9654;52.302;8.120;2023-07-08T14:51:45;8.27;;;5.10;;
19043;SDS011;9654;52.302;8.120;2023-07-08T14:54:12;6.97;;;5.10;;
19043;SDS011;9654;52.302;8.120;2023-07-08T14:56:39;8.57;;;4.97;;
19043;SDS011;9654;52.302;8.120;2023-07-08T14:59:07;8.07;;;5.00;;
19043;SDS011;9654;52.302;8.120;2023-07-08T15:01:39;5.78;;;5.13;;
19043;SDS011;9654;52.302;8.120;2023-07-08T15:04:08;6.68;;;4.90;;
19043;SDS011;9654;52.302;8.120;2023-07-08T15:06:38;7.28;;;5.22;;
19043;SDS011;9654;52.302;8.120;2023-07-08T15:09:05;6.78;;;5.07;;
19043;SDS011;9654;52.302;8.120;2023-07-08T15:11:32;7.28;;;5.10;;
19043;SDS011;9654;52.302;8.120;2023-07-08T15:13:58;5.70;;;5.03;;
19043;SDS011;9654;52.302;8.120;2023-07-08T15:16:26;6.03;;;4.68;;